createdAt,value
2022-08-21T00:03:05.139Z,20.30
2022-08-21T00:06:14.026Z,20.21
2022-08-21T00:09:20.029Z,20.32
2022-08-21T00:12:25.339Z,20.30
2022-08-21T00:15:35.553Z,20.33
2022-08-21T00:18:40.979Z,20.32
2022-08-21T00:21:46.374Z,20.35
2022-08-21T00:24:51.790Z,20.31
2022-08-21T00:27:57.922Z,20.29
2022-08-21T00:31:05.374Z,20.25
2022-08-21T00:34:13.850Z,20.23
2022-08-21T00:37:19.645Z,20.18
2022-08-21T00:40:28.879Z,20.02
2022-08-21T00:43:38.409Z,19.96
2022-08-21T00:46:45.714Z,20.09
2022-08-21T00:49:51.229Z,20.12
2022-08-21T00:52:56.939Z,20.13
2022-08-21T00:56:03.317Z,20.14
2022-08-21T00:59:11.810Z,20.08
2022-08-21T01:02:18.933Z,20.10
2022-08-21T01:05:24.201Z,20.08
2022-08-21T01:08:31.216Z,20.07
2022-08-21T01:11:37.102Z,20.06
2022-08-21T01:14:43.819Z,19.99
2022-08-21T01:17:52.057Z,20.03
2022-08-21T01:21:12.651Z,19.92
2022-08-21T01:24:18.665Z,19.98
2022-08-21T01:27:24.196Z,19.98
2022-08-21T01:30:31.081Z,19.99
2022-08-21T01:33:36.434Z,20.02
2022-08-21T01:36:43.330Z,19.95
2022-08-21T01:39:48.624Z,19.94
2022-08-21T01:42:54.427Z,19.94
2022-08-21T01:45:59.661Z,19.92
2022-08-21T01:49:05.219Z,19.98
2022-08-21T01:52:13.371Z,19.99
2022-08-21T01:55:20.278Z,19.95
2022-08-21T01:58:25.367Z,19.94
2022-08-21T02:01:31.359Z,19.87
2022-08-21T02:04:36.604Z,19.93
2022-08-21T02:07:52.414Z,19.95
2022-08-21T02:10:57.542Z,19.73
2022-08-21T02:14:02.681Z,19.89
2022-08-21T02:17:09.489Z,19.82
2022-08-21T02:20:26.645Z,19.67
2022-08-21T02:23:33.761Z,19.81
2022-08-21T02:26:39.055Z,19.86
2022-08-21T02:29:44.082Z,19.82
2022-08-21T02:32:49.479Z,19.88
2022-08-21T02:35:55.337Z,19.84
2022-08-21T02:39:01.742Z,19.89
2022-08-21T02:42:07.567Z,19.89
2022-08-21T02:45:14.682Z,19.69
2022-08-21T02:48:24.200Z,19.76
2022-08-21T02:51:29.281Z,19.76
2022-08-21T02:54:36.166Z,19.66
2022-08-21T02:57:41.414Z,19.69
2022-08-21T03:00:49.407Z,19.65
2022-08-21T03:03:54.640Z,19.70
2022-08-21T03:06:59.867Z,19.66
2022-08-21T03:10:07.825Z,19.65
2022-08-21T03:13:15.164Z,19.63
2022-08-21T03:16:21.679Z,19.43
2022-08-21T03:19:26.954Z,19.52
2022-08-21T03:22:33.106Z,19.43
2022-08-21T03:25:41.001Z,19.52
2022-08-21T03:28:46.415Z,19.53
2022-08-21T03:31:51.595Z,19.60
2022-08-21T03:34:56.873Z,19.54
2022-08-21T03:38:02.099Z,19.49
2022-08-21T03:41:09.760Z,19.44
2022-08-21T03:44:15.042Z,19.45
2022-08-21T03:47:20.571Z,19.30
2022-08-21T03:50:27.465Z,19.36
2022-08-21T03:53:32.543Z,19.30
2022-08-21T03:56:40.549Z,19.49
2022-08-21T03:59:45.920Z,19.47
2022-08-21T04:02:51.460Z,19.49
2022-08-21T04:05:56.541Z,19.56
2022-08-21T04:09:02.586Z,19.60
2022-08-21T04:12:10.378Z,19.55
2022-08-21T04:15:15.734Z,19.61
2022-08-21T04:18:21.007Z,19.54
2022-08-21T04:21:26.393Z,19.48
2022-08-21T04:24:31.555Z,19.55
2022-08-21T04:27:37.978Z,19.51
2022-08-21T04:30:43.209Z,19.45
2022-08-21T04:33:48.690Z,19.56
2022-08-21T04:36:54.226Z,19.59
2022-08-21T04:39:59.726Z,19.44
2022-08-21T04:43:09.342Z,19.56
2022-08-21T04:46:14.611Z,19.39
2022-08-21T04:49:19.735Z,19.14
2022-08-21T04:52:25.251Z,19.46
2022-08-21T04:55:30.667Z,19.35
2022-08-21T04:58:38.639Z,19.46
2022-08-21T05:01:45.709Z,19.38
2022-08-21T05:04:53.424Z,19.42
2022-08-21T05:07:59.441Z,19.45
2022-08-21T05:11:05.451Z,19.48
2022-08-21T05:14:13.534Z,19.56
2022-08-21T05:17:18.788Z,19.51
2022-08-21T05:20:23.858Z,19.52
2022-08-21T05:23:28.961Z,19.59
2022-08-21T05:26:45.269Z,19.60
2022-08-21T05:29:52.586Z,19.54
2022-08-21T05:33:00.238Z,19.52
2022-08-21T05:36:06.685Z,19.56
2022-08-21T05:39:12.510Z,19.57
2022-08-21T05:42:17.723Z,19.44
2022-08-21T05:45:41.731Z,19.58
2022-08-21T05:48:49.547Z,19.53
2022-08-21T05:51:54.975Z,19.61
2022-08-21T05:55:00.040Z,19.70
2022-08-21T05:58:06.121Z,19.71
2022-08-21T06:01:13.346Z,19.75
2022-08-21T06:04:18.799Z,19.73
2022-08-21T06:07:23.806Z,19.75
2022-08-21T06:10:28.816Z,19.79
2022-08-21T06:13:35.398Z,19.84
2022-08-21T06:16:41.958Z,19.77
2022-08-21T06:19:47.090Z,19.82
2022-08-21T06:22:52.154Z,19.74
2022-08-21T06:25:57.530Z,19.58
2022-08-21T06:29:02.719Z,19.69
2022-08-21T06:32:12.438Z,19.42
2022-08-21T06:35:17.526Z,19.66
2022-08-21T06:38:22.579Z,19.75
2022-08-21T06:41:28.518Z,19.67
2022-08-21T06:44:33.853Z,19.85
2022-08-21T06:47:40.411Z,19.91
2022-08-21T06:50:45.803Z,19.79
2022-08-21T06:53:51.710Z,19.92
2022-08-21T06:56:56.896Z,20.01
2022-08-21T07:00:01.953Z,19.90
2022-08-21T07:03:09.603Z,19.85
2022-08-21T07:06:14.889Z,19.88
2022-08-21T07:09:24.422Z,19.93
2022-08-21T07:12:30.086Z,19.86
2022-08-21T07:15:35.232Z,19.89
2022-08-21T07:18:41.758Z,19.90
2022-08-21T07:21:46.803Z,20.05
2022-08-21T07:24:51.872Z,20.04
2022-08-21T07:27:57.539Z,20.06
2022-08-21T07:31:05.516Z,20.06
2022-08-21T07:34:13.350Z,20.00
2022-08-21T07:37:18.490Z,20.02
2022-08-21T07:40:25.427Z,20.08
2022-08-21T07:43:31.542Z,19.63
2022-08-21T07:46:36.865Z,19.91
2022-08-21T07:49:43.305Z,20.01
2022-08-21T07:52:48.482Z,20.04
2022-08-21T07:55:54.009Z,20.14
2022-08-21T07:58:59.329Z,20.22
2022-08-21T08:02:04.750Z,20.24
2022-08-21T08:05:13.726Z,20.36
2022-08-21T08:08:19.226Z,20.43
2022-08-21T08:11:24.275Z,20.57
2022-08-21T08:14:31.441Z,20.65
2022-08-21T08:17:37.156Z,20.77
2022-08-21T08:20:43.855Z,20.70
2022-08-21T08:23:49.629Z,20.89
2022-08-21T08:26:55.049Z,20.97
2022-08-21T08:30:00.419Z,21.00
2022-08-21T08:33:05.941Z,21.05
2022-08-21T08:36:18.386Z,21.03
2022-08-21T08:39:27.045Z,21.11
2022-08-21T08:42:37.820Z,21.13
2022-08-21T08:45:48.809Z,21.17
2022-08-21T08:49:03.587Z,21.21
2022-08-21T08:52:25.337Z,21.22
2022-08-21T08:55:35.514Z,21.22
2022-08-21T08:58:44.627Z,21.34
2022-08-21T09:01:50.116Z,21.36
2022-08-21T09:04:55.350Z,21.21
2022-08-21T09:08:23.221Z,21.29
2022-08-21T09:11:34.299Z,21.32
2022-08-21T09:14:53.149Z,21.48
2022-08-21T09:18:23.148Z,21.63
2022-08-21T09:21:38.335Z,21.73
2022-08-21T09:24:52.417Z,21.69
2022-08-21T09:27:57.494Z,21.50
2022-08-21T09:31:04.183Z,21.73
2022-08-21T09:34:14.685Z,21.78
2022-08-21T09:37:20.850Z,21.93
2022-08-21T09:40:40.844Z,22.02
2022-08-21T09:43:55.134Z,22.10
2022-08-21T09:47:00.643Z,22.12
2022-08-21T09:50:13.366Z,21.95
2022-08-21T09:53:21.899Z,21.95
2022-08-21T09:56:51.895Z,21.96
2022-08-21T09:59:57.830Z,22.04
2022-08-21T10:03:16.175Z,21.96
2022-08-21T10:06:28.110Z,21.97
2022-08-21T10:09:34.601Z,21.99
2022-08-21T10:12:51.125Z,21.96
2022-08-21T10:16:11.080Z,21.62
2022-08-21T10:19:24.450Z,21.94
2022-08-21T10:22:40.650Z,22.04
2022-08-21T10:26:13.007Z,22.16
2022-08-21T10:29:47.582Z,22.19
2022-08-21T10:33:04.602Z,22.26
2022-08-21T10:36:16.816Z,22.17
2022-08-21T10:39:36.110Z,22.22
2022-08-21T10:42:51.678Z,22.29
2022-08-21T10:46:07.066Z,22.26
2022-08-21T10:49:24.700Z,22.16
2022-08-21T10:52:53.402Z,22.13
2022-08-21T10:56:04.881Z,22.10
2022-08-21T10:59:26.735Z,22.17
2022-08-21T11:02:39.909Z,22.25
2022-08-21T11:05:50.945Z,22.23
2022-08-21T11:09:00.751Z,22.30
2022-08-21T11:12:22.333Z,22.13
2022-08-21T11:15:42.262Z,22.24
2022-08-21T11:18:55.232Z,22.35
2022-08-21T11:22:13.522Z,22.37
2022-08-21T11:25:25.103Z,22.51
2022-08-21T11:28:45.991Z,22.49
2022-08-21T11:32:32.059Z,22.68
2022-08-21T11:35:48.673Z,22.77
2022-08-21T11:39:02.554Z,22.57
2022-08-21T11:42:21.900Z,22.57
2022-08-21T11:45:34.800Z,22.68
2022-08-21T11:48:47.390Z,22.83
2022-08-21T11:51:58.731Z,22.77
2022-08-21T11:55:08.972Z,22.80
2022-08-21T11:58:22.400Z,22.71
2022-08-21T12:01:34.253Z,22.87
2022-08-21T12:04:48.718Z,22.86
2022-08-21T12:08:07.851Z,22.87
2022-08-21T12:11:28.091Z,22.79
2022-08-21T12:14:43.166Z,22.91
2022-08-21T12:18:02.928Z,22.89
2022-08-21T12:21:27.946Z,22.93
2022-08-21T12:24:40.509Z,22.99
2022-08-21T12:27:49.049Z,22.85
2022-08-21T12:30:58.008Z,23.02
2022-08-21T12:34:04.925Z,23.09
2022-08-21T12:37:24.291Z,23.04
2022-08-21T12:40:39.582Z,23.08
2022-08-21T12:43:47.668Z,22.84
2022-08-21T12:47:00.894Z,22.68
2022-08-21T12:50:09.911Z,22.97
2022-08-21T12:53:28.366Z,23.07
2022-08-21T12:56:37.135Z,23.08
2022-08-21T12:59:42.551Z,22.79
2022-08-21T13:02:50.580Z,23.05
2022-08-21T13:05:55.894Z,23.02
2022-08-21T13:09:09.201Z,23.04
2022-08-21T13:12:17.069Z,23.11
2022-08-21T13:15:31.991Z,23.20
2022-08-21T13:18:55.057Z,23.31
2022-08-21T13:22:02.490Z,23.09
2022-08-21T13:25:32.478Z,22.92
2022-08-21T13:28:39.419Z,23.08
2022-08-21T13:31:50.830Z,23.16
2022-08-21T13:34:56.014Z,23.18
2022-08-21T13:38:01.777Z,23.16
2022-08-21T13:41:11.522Z,23.17
2022-08-21T13:44:21.178Z,23.00
2022-08-21T13:47:26.561Z,23.15
2022-08-21T13:50:31.992Z,23.33
2022-08-21T13:53:46.737Z,23.39
2022-08-21T13:56:52.011Z,23.20
2022-08-21T14:03:36.296Z,23.28
2022-08-21T14:06:41.547Z,22.93
2022-08-21T14:09:47.712Z,23.10
2022-08-21T14:12:58.260Z,23.25
2022-08-21T14:16:05.441Z,23.26
2022-08-21T14:19:20.152Z,23.41
2022-08-21T14:22:39.502Z,23.25
2022-08-21T14:25:46.438Z,23.33
2022-08-21T14:28:51.686Z,23.46
2022-08-21T14:31:59.913Z,23.27
2022-08-21T14:35:07.530Z,23.45
2022-08-21T14:38:18.814Z,23.35
2022-08-21T14:41:27.098Z,23.43
2022-08-21T14:44:32.981Z,23.43
2022-08-21T14:47:38.443Z,23.38
2022-08-21T14:50:45.078Z,23.42
2022-08-21T14:53:50.620Z,23.29
2022-08-21T14:56:56.288Z,23.23
2022-08-21T15:00:02.370Z,23.22
2022-08-21T15:03:08.132Z,23.36
2022-08-21T15:06:14.736Z,23.17
2022-08-21T15:09:20.282Z,23.19
2022-08-21T15:12:26.074Z,23.24
2022-08-21T15:15:31.770Z,23.18
2022-08-21T15:18:36.866Z,23.20
2022-08-21T15:21:43.386Z,23.23
2022-08-21T15:24:48.610Z,23.22
2022-08-21T15:27:53.934Z,23.21
2022-08-21T15:30:59.399Z,23.14
2022-08-21T15:34:04.937Z,23.17
2022-08-21T15:37:11.914Z,23.22
2022-08-21T15:40:18.090Z,23.25
2022-08-21T15:43:29.838Z,23.18
2022-08-21T15:46:36.104Z,23.12
2022-08-21T15:49:43.666Z,23.04
2022-08-21T15:52:50.804Z,23.12
2022-08-21T15:55:56.430Z,23.15
2022-08-21T15:59:04.066Z,23.13
2022-08-21T16:02:15.027Z,23.11
2022-08-21T16:05:21.453Z,23.10
2022-08-21T16:08:27.910Z,23.10
2022-08-21T16:11:33.138Z,23.10
2022-08-21T16:14:38.519Z,23.12
2022-08-21T16:17:48.665Z,23.07
2022-08-21T16:20:53.944Z,23.05
2022-08-21T16:24:00.546Z,23.07
2022-08-21T16:27:08.040Z,23.08
2022-08-21T16:30:15.478Z,23.07
2022-08-21T16:33:27.211Z,23.04
2022-08-21T16:36:32.495Z,23.01
2022-08-21T16:39:39.304Z,22.92
2022-08-21T16:42:45.155Z,22.99
2022-08-21T16:45:50.327Z,22.98
2022-08-21T16:48:55.627Z,22.90
2022-08-21T16:52:00.663Z,22.91
2022-08-21T16:55:09.136Z,22.89
2022-08-21T16:58:22.455Z,22.83
2022-08-21T17:01:31.809Z,22.76
2022-08-21T17:04:36.850Z,22.78
2022-08-21T17:07:43.225Z,22.70
2022-08-21T17:10:51.160Z,22.71
2022-08-21T17:13:57.935Z,22.68
2022-08-21T17:17:03.659Z,22.66
2022-08-21T17:20:10.929Z,22.60
2022-08-21T17:23:17.384Z,22.58
2022-08-21T17:26:24.749Z,22.55
2022-08-21T17:29:32.562Z,22.58
2022-08-21T17:32:38.299Z,22.51
2022-08-21T17:35:45.431Z,22.46
2022-08-21T17:38:50.881Z,22.35
2022-08-21T17:41:58.455Z,22.31
2022-08-21T17:45:04.512Z,22.36
2022-08-21T17:48:10.426Z,22.30
2022-08-21T17:51:15.853Z,22.24
2022-08-21T17:54:20.969Z,22.22
2022-08-21T17:57:28.147Z,22.17
2022-08-21T18:00:33.783Z,22.15
2022-08-21T18:03:39.027Z,22.09
2022-08-21T18:06:45.428Z,22.08
2022-08-21T18:09:50.745Z,22.03
2022-08-21T18:12:59.628Z,21.97
2022-08-21T18:16:06.121Z,21.98
2022-08-21T18:19:16.052Z,21.96
2022-08-21T18:22:21.337Z,21.92
2022-08-21T18:25:26.489Z,21.86
2022-08-21T18:28:33.339Z,21.83
2022-08-21T18:31:40.553Z,21.81
2022-08-21T18:34:46.037Z,21.74
2022-08-21T18:37:51.326Z,21.72
2022-08-21T18:40:57.106Z,21.68
2022-08-21T18:44:03.619Z,21.58
2022-08-21T18:47:14.386Z,21.63
2022-08-21T18:50:28.790Z,21.57
2022-08-21T18:53:34.066Z,21.53
2022-08-21T18:56:42.150Z,21.50
2022-08-21T18:59:48.864Z,21.50
2022-08-21T19:02:54.429Z,21.20
2022-08-21T19:06:00.023Z,21.20
2022-08-21T19:09:06.235Z,21.25
2022-08-21T19:12:23.645Z,21.10
2022-08-21T19:15:36.338Z,21.21
2022-08-21T19:18:42.860Z,21.13
2022-08-21T19:21:49.484Z,21.21
2022-08-21T19:24:55.097Z,21.13
2022-08-21T19:28:00.385Z,21.06
2022-08-21T19:31:11.929Z,21.00
2022-08-21T19:34:25.286Z,20.99
2022-08-21T19:37:30.717Z,20.95
2022-08-21T19:40:36.713Z,20.84
2022-08-21T19:43:44.995Z,20.91
2022-08-21T19:46:54.514Z,20.94
2022-08-21T19:50:03.198Z,20.90
2022-08-21T19:53:12.003Z,20.89
2022-08-21T19:56:22.508Z,20.87
2022-08-21T19:59:28.233Z,20.81
2022-08-21T20:02:35.752Z,20.76
2022-08-21T20:05:41.524Z,20.71
2022-08-21T20:08:49.513Z,20.68
2022-08-21T20:11:57.534Z,20.66
2022-08-21T20:15:03.102Z,20.69
2022-08-21T20:18:10.373Z,20.59
2022-08-21T20:21:17.618Z,20.60
2022-08-21T20:24:22.662Z,20.56
2022-08-21T20:27:32.509Z,20.57
2022-08-21T20:30:46.626Z,20.53
2022-08-21T20:33:54.516Z,20.55
2022-08-21T20:40:29.209Z,20.47
2022-08-21T20:43:39.550Z,20.44
2022-08-21T20:46:47.943Z,20.37
2022-08-21T20:50:04.200Z,20.38
2022-08-21T20:53:27.094Z,20.29
2022-08-21T20:56:54.163Z,20.31
2022-08-21T21:00:02.683Z,20.27
2022-08-21T21:03:13.892Z,20.24
2022-08-21T21:06:25.501Z,20.22
2022-08-21T21:09:40.280Z,20.21
2022-08-21T21:12:53.309Z,20.07
2022-08-21T21:16:04.731Z,20.17
2022-08-21T21:19:15.086Z,20.14
2022-08-21T21:22:32.393Z,20.17
2022-08-21T21:25:44.188Z,20.16
2022-08-21T21:28:55.935Z,20.13
2022-08-21T21:32:01.943Z,20.05
2022-08-21T21:35:09.365Z,20.04
2022-08-21T21:38:23.618Z,19.97
2022-08-21T21:41:36.677Z,20.01
2022-08-21T21:45:07.007Z,20.00
2022-08-21T21:48:23.793Z,19.99
2022-08-21T21:51:51.661Z,19.92
2022-08-21T21:55:18.555Z,19.80
2022-08-21T21:58:46.382Z,19.76
2022-08-21T22:01:57.576Z,19.89
2022-08-21T22:05:09.786Z,19.81
2022-08-21T22:12:15.313Z,19.86
2022-08-21T22:15:27.944Z,19.82
2022-08-21T22:18:54.962Z,19.78
2022-08-21T22:22:06.573Z,19.72
2022-08-21T22:25:22.228Z,19.70
2022-08-21T22:28:31.278Z,19.64
2022-08-21T22:35:16.462Z,19.68
2022-08-21T22:38:31.762Z,19.53
2022-08-21T22:41:42.321Z,19.57
2022-08-21T22:44:56.157Z,19.43
2022-08-21T22:48:11.296Z,19.55
2022-08-21T22:51:36.068Z,19.58
2022-08-21T22:54:45.317Z,19.58
2022-08-21T22:58:04.360Z,19.60
2022-08-21T23:01:38.050Z,19.56
2022-08-21T23:04:49.613Z,19.54
2022-08-21T23:07:55.462Z,19.52
2022-08-21T23:11:13.983Z,19.49
2022-08-21T23:14:19.252Z,19.49
2022-08-21T23:17:45.515Z,19.50
2022-08-21T23:21:02.734Z,19.37
2022-08-21T23:24:35.543Z,19.37
2022-08-21T23:27:56.150Z,19.31
2022-08-21T23:31:13.407Z,19.38
2022-08-21T23:34:29.187Z,19.42
2022-08-21T23:37:58.315Z,19.38
2022-08-21T23:41:11.619Z,19.37
2022-08-21T23:44:37.571Z,19.39
2022-08-21T23:47:58.584Z,19.35
2022-08-21T23:51:12.341Z,19.33
2022-08-21T23:54:24.566Z,19.27
2022-08-21T23:57:46.403Z,19.21
